sensor_id;sensor_type;location;lat;lon;timestamp;temperature;humidity
77100;SHT31;66602;48.922;2.414;2023-07-20T00:00:45;16.94;75.79
77100;SHT31;66602;48.922;2.414;2023-07-20T00:03:12;16.90;76.06
77100;SHT31;66602;48.922;2.414;2023-07-20T00:05:42;16.84;76.35
77100;SHT31;66602;48.922;2.414;2023-07-20T00:08:08;16.81;76.49
77100;SHT31;66602;48.922;2.414;2023-07-20T00:10:33;16.74;76.87
77100;SHT31;66602;48.922;2.414;2023-07-20T00:12:59;16.66;77.12
77100;SHT31;66602;48.922;2.414;2023-07-20T00:15:24;16.59;77.54
77100;SHT31;66602;48.922;2.414;2023-07-20T00:17:50;16.57;77.65
77100;SHT31;66602;48.922;2.414;2023-07-20T00:20:15;16.53;77.86
77100;SHT31;66602;48.922;2.414;2023-07-20T00:22:41;16.55;77.82
77100;SHT31;66602;48.922;2.414;2023-07-20T00:25:06;16.49;78.05
77100;SHT31;66602;48.922;2.414;2023-07-20T00:27:32;16.52;78.02
77100;SHT31;66602;48.922;2.414;2023-07-20T00:29:57;16.53;77.91
77100;SHT31;66602;48.922;2.414;2023-07-20T00:32:23;16.56;77.84
77100;SHT31;66602;48.922;2.414;2023-07-20T00:34:48;16.49;78.21
77100;SHT31;66602;48.922;2.414;2023-07-20T00:37:14;16.38;78.66
77100;SHT31;66602;48.922;2.414;2023-07-20T00:39:39;16.34;79.00
77100;SHT31;66602;48.922;2.414;2023-07-20T00:42:05;16.34;78.86
77100;SHT31;66602;48.922;2.414;2023-07-20T00:44:30;16.28;79.02
77100;SHT31;66602;48.922;2.414;2023-07-20T00:46:56;16.26;79.29
77100;SHT31;66602;48.922;2.414;2023-07-20T00:49:22;16.23;79.41
77100;SHT31;66602;48.922;2.414;2023-07-20T00:51:49;16.22;79.55
77100;SHT31;66602;48.922;2.414;2023-07-20T00:54:15;16.19;79.72
77100;SHT31;66602;48.922;2.414;2023-07-20T00:56:41;16.13;79.83
77100;SHT31;66602;48.922;2.414;2023-07-20T00:59:07;16.10;80.22
77100;SHT31;66602;48.922;2.414;2023-07-20T01:01:32;16.05;80.24
77100;SHT31;66602;48.922;2.414;2023-07-20T01:03:58;15.99;80.78
77100;SHT31;66602;48.922;2.414;2023-07-20T01:09:22;15.99;80.49
77100;SHT31;66602;48.922;2.414;2023-07-20T01:14:23;15.91;81.32
77100;SHT31;66602;48.922;2.414;2023-07-20T01:16:49;15.91;81.38
77100;SHT31;66602;48.922;2.414;2023-07-20T01:19:17;15.95;81.37
77100;SHT31;66602;48.922;2.414;2023-07-20T01:24:57;16.05;81.18
77100;SHT31;66602;48.922;2.414;2023-07-20T01:28:16;16.05;80.96
77100;SHT31;66602;48.922;2.414;2023-07-20T01:33:40;15.82;81.67
77100;SHT31;66602;48.922;2.414;2023-07-20T01:36:07;15.67;81.99
77100;SHT31;66602;48.922;2.414;2023-07-20T01:38:34;15.50;82.51
77100;SHT31;66602;48.922;2.414;2023-07-20T01:40:59;15.39;83.30
77100;SHT31;66602;48.922;2.414;2023-07-20T01:43:25;15.36;83.74
77100;SHT31;66602;48.922;2.414;2023-07-20T01:45:50;15.36;83.90
77100;SHT31;66602;48.922;2.414;2023-07-20T01:48:16;15.36;83.65
77100;SHT31;66602;48.922;2.414;2023-07-20T01:50:41;15.30;83.87
77100;SHT31;66602;48.922;2.414;2023-07-20T01:53:08;15.34;83.91
77100;SHT31;66602;48.922;2.414;2023-07-20T01:55:33;15.24;84.06
77100;SHT31;66602;48.922;2.414;2023-07-20T01:57:59;15.22;84.40
77100;SHT31;66602;48.922;2.414;2023-07-20T02:00:26;15.16;84.39
77100;SHT31;66602;48.922;2.414;2023-07-20T02:02:51;15.07;84.61
77100;SHT31;66602;48.922;2.414;2023-07-20T02:05:17;15.02;85.17
77100;SHT31;66602;48.922;2.414;2023-07-20T02:07:43;15.02;85.05
77100;SHT31;66602;48.922;2.414;2023-07-20T02:10:09;15.02;85.29
77100;SHT31;66602;48.922;2.414;2023-07-20T02:12:35;14.96;85.29
77100;SHT31;66602;48.922;2.414;2023-07-20T02:15:01;14.85;85.35
77100;SHT31;66602;48.922;2.414;2023-07-20T02:17:27;14.72;85.83
77100;SHT31;66602;48.922;2.414;2023-07-20T02:19:53;14.71;86.18
77100;SHT31;66602;48.922;2.414;2023-07-20T02:22:19;14.69;86.05
77100;SHT31;66602;48.922;2.414;2023-07-20T02:24:45;14.64;86.48
77100;SHT31;66602;48.922;2.414;2023-07-20T02:27:10;14.55;86.43
77100;SHT31;66602;48.922;2.414;2023-07-20T02:29:36;14.59;86.59
77100;SHT31;66602;48.922;2.414;2023-07-20T02:32:02;14.67;86.79
77100;SHT31;66602;48.922;2.414;2023-07-20T02:34:27;14.65;86.61
77100;SHT31;66602;48.922;2.414;2023-07-20T02:36:53;14.67;86.74
77100;SHT31;66602;48.922;2.414;2023-07-20T02:39:21;14.75;86.79
77100;SHT31;66602;48.922;2.414;2023-07-20T02:41:47;14.82;86.69
77100;SHT31;66602;48.922;2.414;2023-07-20T02:44:14;14.76;86.54
77100;SHT31;66602;48.922;2.414;2023-07-20T02:46:39;14.75;86.70
77100;SHT31;66602;48.922;2.414;2023-07-20T02:49:05;14.71;86.96
77100;SHT31;66602;48.922;2.414;2023-07-20T02:51:30;14.62;87.02
77100;SHT31;66602;48.922;2.414;2023-07-20T02:53:56;14.64;87.31
77100;SHT31;66602;48.922;2.414;2023-07-20T02:56:21;14.59;87.17
77100;SHT31;66602;48.922;2.414;2023-07-20T02:58:48;14.57;87.28
77100;SHT31;66602;48.922;2.414;2023-07-20T03:01:13;14.64;87.68
77100;SHT31;66602;48.922;2.414;2023-07-20T03:03:41;14.59;87.43
77100;SHT31;66602;48.922;2.414;2023-07-20T03:06:11;14.55;87.72
77100;SHT31;66602;48.922;2.414;2023-07-20T03:08:36;14.55;88.34
77100;SHT31;66602;48.922;2.414;2023-07-20T03:11:02;14.59;88.26
77100;SHT31;66602;48.922;2.414;2023-07-20T03:13:28;14.54;88.24
77100;SHT31;66602;48.922;2.414;2023-07-20T03:15:53;14.59;88.51
77100;SHT31;66602;48.922;2.414;2023-07-20T03:18:19;14.59;88.23
77100;SHT31;66602;48.922;2.414;2023-07-20T03:20:44;14.67;88.92
77100;SHT31;66602;48.922;2.414;2023-07-20T03:23:11;14.72;88.46
77100;SHT31;66602;48.922;2.414;2023-07-20T03:25:37;14.80;88.56
77100;SHT31;66602;48.922;2.414;2023-07-20T03:28:03;14.89;88.24
77100;SHT31;66602;48.922;2.414;2023-07-20T03:30:29;14.98;87.91
77100;SHT31;66602;48.922;2.414;2023-07-20T03:32:54;14.98;87.71
77100;SHT31;66602;48.922;2.414;2023-07-20T03:35:20;14.92;87.68
77100;SHT31;66602;48.922;2.414;2023-07-20T03:37:45;15.03;88.03
77100;SHT31;66602;48.922;2.414;2023-07-20T03:40:11;15.00;87.76
77100;SHT31;66602;48.922;2.414;2023-07-20T03:42:36;15.07;87.65
77100;SHT31;66602;48.922;2.414;2023-07-20T03:45:03;15.10;87.47
77100;SHT31;66602;48.922;2.414;2023-07-20T03:47:29;15.10;87.58
77100;SHT31;66602;48.922;2.414;2023-07-20T03:49:55;15.13;87.33
77100;SHT31;66602;48.922;2.414;2023-07-20T03:52:20;15.04;87.33
77100;SHT31;66602;48.922;2.414;2023-07-20T03:54:46;14.98;87.61
77100;SHT31;66602;48.922;2.414;2023-07-20T03:57:11;14.98;88.06
77100;SHT31;66602;48.922;2.414;2023-07-20T03:59:38;14.98;87.83
77100;SHT31;66602;48.922;2.414;2023-07-20T04:02:04;15.03;87.82
77100;SHT31;66602;48.922;2.414;2023-07-20T04:04:31;15.09;87.66
77100;SHT31;66602;48.922;2.414;2023-07-20T04:06:56;15.10;87.30
77100;SHT31;66602;48.922;2.414;2023-07-20T04:09:22;15.07;87.58
77100;SHT31;66602;48.922;2.414;2023-07-20T04:11:47;15.16;87.65
77100;SHT31;66602;48.922;2.414;2023-07-20T04:14:13;15.26;87.24
77100;SHT31;66602;48.922;2.414;2023-07-20T04:16:38;15.39;86.90
77100;SHT31;66602;48.922;2.414;2023-07-20T04:19:04;15.43;86.56
77100;SHT31;66602;48.922;2.414;2023-07-20T04:21:29;15.50;86.48
77100;SHT31;66602;48.922;2.414;2023-07-20T04:23:55;15.64;85.77
77100;SHT31;66602;48.922;2.414;2023-07-20T04:26:20;15.67;85.68
77100;SHT31;66602;48.922;2.414;2023-07-20T04:28:46;15.68;85.76
77100;SHT31;66602;48.922;2.414;2023-07-20T04:31:14;15.65;85.75
77100;SHT31;66602;48.922;2.414;2023-07-20T04:33:40;15.67;85.57
77100;SHT31;66602;48.922;2.414;2023-07-20T04:36:06;15.61;85.84
77100;SHT31;66602;48.922;2.414;2023-07-20T04:38:31;15.55;86.29
77100;SHT31;66602;48.922;2.414;2023-07-20T04:40:57;15.65;85.80
77100;SHT31;66602;48.922;2.414;2023-07-20T04:43:23;15.62;85.71
77100;SHT31;66602;48.922;2.414;2023-07-20T04:45:48;15.58;85.93
77100;SHT31;66602;48.922;2.414;2023-07-20T04:48:16;15.60;86.18
77100;SHT31;66602;48.922;2.414;2023-07-20T04:50:45;15.58;86.03
77100;SHT31;66602;48.922;2.414;2023-07-20T04:53:11;15.75;85.48
77100;SHT31;66602;48.922;2.414;2023-07-20T04:55:39;15.81;85.10
77100;SHT31;66602;48.922;2.414;2023-07-20T04:58:06;15.84;85.05
77100;SHT31;66602;48.922;2.414;2023-07-20T05:00:35;15.85;85.07
77100;SHT31;66602;48.922;2.414;2023-07-20T05:03:01;15.89;84.88
77100;SHT31;66602;48.922;2.414;2023-07-20T05:05:26;15.92;84.58
77100;SHT31;66602;48.922;2.414;2023-07-20T05:07:52;15.91;84.77
77100;SHT31;66602;48.922;2.414;2023-07-20T05:10:18;15.89;84.99
77100;SHT31;66602;48.922;2.414;2023-07-20T05:12:44;15.91;85.02
77100;SHT31;66602;48.922;2.414;2023-07-20T05:15:10;15.92;85.18
77100;SHT31;66602;48.922;2.414;2023-07-20T05:17:36;15.94;85.12
77100;SHT31;66602;48.922;2.414;2023-07-20T05:20:02;15.94;85.21
77100;SHT31;66602;48.922;2.414;2023-07-20T05:22:30;15.99;85.23
77100;SHT31;66602;48.922;2.414;2023-07-20T05:24:55;16.05;85.10
77100;SHT31;66602;48.922;2.414;2023-07-20T05:27:21;16.16;85.04
77100;SHT31;66602;48.922;2.414;2023-07-20T05:29:47;16.23;84.68
77100;SHT31;66602;48.922;2.414;2023-07-20T05:32:13;16.26;84.78
77100;SHT31;66602;48.922;2.414;2023-07-20T05:34:39;16.28;84.86
77100;SHT31;66602;48.922;2.414;2023-07-20T05:37:06;16.23;84.90
77100;SHT31;66602;48.922;2.414;2023-07-20T05:39:35;16.23;84.89
77100;SHT31;66602;48.922;2.414;2023-07-20T05:42:01;16.26;84.68
77100;SHT31;66602;48.922;2.414;2023-07-20T05:44:26;16.30;84.40
77100;SHT31;66602;48.922;2.414;2023-07-20T05:46:52;16.38;84.26
77100;SHT31;66602;48.922;2.414;2023-07-20T05:49:18;16.46;84.02
77100;SHT31;66602;48.922;2.414;2023-07-20T05:51:44;16.50;83.64
77100;SHT31;66602;48.922;2.414;2023-07-20T05:54:12;16.59;83.11
77100;SHT31;66602;48.922;2.414;2023-07-20T05:56:38;16.63;82.72
77100;SHT31;66602;48.922;2.414;2023-07-20T05:59:04;16.64;82.60
77100;SHT31;66602;48.922;2.414;2023-07-20T06:01:29;16.63;82.57
77100;SHT31;66602;48.922;2.414;2023-07-20T06:03:55;16.63;82.71
77100;SHT31;66602;48.922;2.414;2023-07-20T06:06:21;16.66;82.56
77100;SHT31;66602;48.922;2.414;2023-07-20T06:08:47;16.71;82.46
77100;SHT31;66602;48.922;2.414;2023-07-20T06:11:13;16.74;82.12
77100;SHT31;66602;48.922;2.414;2023-07-20T06:13:38;16.80;82.46
77100;SHT31;66602;48.922;2.414;2023-07-20T06:16:04;16.88;81.65
77100;SHT31;66602;48.922;2.414;2023-07-20T06:18:30;16.92;81.79
77100;SHT31;66602;48.922;2.414;2023-07-20T06:20:56;16.97;81.01
77100;SHT31;66602;48.922;2.414;2023-07-20T06:23:21;16.98;80.99
77100;SHT31;66602;48.922;2.414;2023-07-20T06:25:47;17.04;80.63
77100;SHT31;66602;48.922;2.414;2023-07-20T06:28:13;17.07;80.92
77100;SHT31;66602;48.922;2.414;2023-07-20T06:30:39;17.14;80.53
77100;SHT31;66602;48.922;2.414;2023-07-20T06:33:05;17.25;80.46
77100;SHT31;66602;48.922;2.414;2023-07-20T06:35:30;17.43;80.10
77100;SHT31;66602;48.922;2.414;2023-07-20T06:37:56;17.46;79.94
77100;SHT31;66602;48.922;2.414;2023-07-20T06:40:22;17.46;79.78
77100;SHT31;66602;48.922;2.414;2023-07-20T06:42:48;17.43;79.98
77100;SHT31;66602;48.922;2.414;2023-07-20T06:45:13;17.38;80.33
77100;SHT31;66602;48.922;2.414;2023-07-20T06:47:39;17.31;80.10
77100;SHT31;66602;48.922;2.414;2023-07-20T06:50:09;17.38;80.09
77100;SHT31;66602;48.922;2.414;2023-07-20T06:52:35;17.45;79.01
77100;SHT31;66602;48.922;2.414;2023-07-20T06:55:00;17.48;79.00
77100;SHT31;66602;48.922;2.414;2023-07-20T06:57:26;17.61;78.77
77100;SHT31;66602;48.922;2.414;2023-07-20T06:59:51;17.77;77.73
77100;SHT31;66602;48.922;2.414;2023-07-20T07:02:17;18.11;77.42
77100;SHT31;66602;48.922;2.414;2023-07-20T07:04:43;20.36;70.42
77100;SHT31;66602;48.922;2.414;2023-07-20T07:07:09;23.09;60.10
77100;SHT31;66602;48.922;2.414;2023-07-20T07:09:35;24.69;55.39
77100;SHT31;66602;48.922;2.414;2023-07-20T07:12:00;25.99;51.62
77100;SHT31;66602;48.922;2.414;2023-07-20T07:14:26;26.85;48.44
77100;SHT31;66602;48.922;2.414;2023-07-20T07:16:52;27.71;46.27
77100;SHT31;66602;48.922;2.414;2023-07-20T07:19:18;28.11;45.42
77100;SHT31;66602;48.922;2.414;2023-07-20T07:21:46;28.48;44.72
77100;SHT31;66602;48.922;2.414;2023-07-20T07:24:12;29.14;43.26
77100;SHT31;66602;48.922;2.414;2023-07-20T07:26:37;29.57;41.77
77100;SHT31;66602;48.922;2.414;2023-07-20T07:29:07;30.23;40.33
77100;SHT31;66602;48.922;2.414;2023-07-20T07:31:34;30.57;39.72
77100;SHT31;66602;48.922;2.414;2023-07-20T07:34:01;30.66;39.68
77100;SHT31;66602;48.922;2.414;2023-07-20T07:36:26;30.55;39.41
77100;SHT31;66602;48.922;2.414;2023-07-20T07:38:52;30.69;39.46
77100;SHT31;66602;48.922;2.414;2023-07-20T07:41:17;31.14;38.62
77100;SHT31;66602;48.922;2.414;2023-07-20T07:43:43;31.28;37.80
77100;SHT31;66602;48.922;2.414;2023-07-20T07:46:08;31.48;37.34
77100;SHT31;66602;48.922;2.414;2023-07-20T07:48:34;31.57;37.44
77100;SHT31;66602;48.922;2.414;2023-07-20T07:50:59;31.52;37.17
77100;SHT31;66602;48.922;2.414;2023-07-20T07:53:25;31.04;38.09
77100;SHT31;66602;48.922;2.414;2023-07-20T07:55:52;31.31;37.32
77100;SHT31;66602;48.922;2.414;2023-07-20T07:58:17;31.43;36.77
77100;SHT31;66602;48.922;2.414;2023-07-20T08:00:43;31.82;36.34
77100;SHT31;66602;48.922;2.414;2023-07-20T08:03:10;32.21;37.57
77100;SHT31;66602;48.922;2.414;2023-07-20T08:05:35;32.60;35.49
77100;SHT31;66602;48.922;2.414;2023-07-20T08:08:02;32.81;36.51
77100;SHT31;66602;48.922;2.414;2023-07-20T08:10:29;33.01;34.52
77100;SHT31;66602;48.922;2.414;2023-07-20T08:12:55;33.15;34.23
77100;SHT31;66602;48.922;2.414;2023-07-20T08:15:20;33.22;34.29
77100;SHT31;66602;48.922;2.414;2023-07-20T08:17:46;33.21;34.26
77100;SHT31;66602;48.922;2.414;2023-07-20T08:20:12;33.63;33.40
77100;SHT31;66602;48.922;2.414;2023-07-20T08:22:38;34.31;32.58
77100;SHT31;66602;48.922;2.414;2023-07-20T08:25:05;34.68;32.67
77100;SHT31;66602;48.922;2.414;2023-07-20T08:27:31;34.68;31.03
77100;SHT31;66602;48.922;2.414;2023-07-20T08:29:56;34.01;31.98
77100;SHT31;66602;48.922;2.414;2023-07-20T08:32:22;33.22;34.48
77100;SHT31;66602;48.922;2.414;2023-07-20T08:34:48;31.59;37.79
77100;SHT31;66602;48.922;2.414;2023-07-20T08:37:13;31.79;35.69
77100;SHT31;66602;48.922;2.414;2023-07-20T08:39:39;32.05;35.11
77100;SHT31;66602;48.922;2.414;2023-07-20T08:42:05;32.94;35.06
77100;SHT31;66602;48.922;2.414;2023-07-20T08:44:35;32.85;33.79
77100;SHT31;66602;48.922;2.414;2023-07-20T08:47:02;33.47;33.18
77100;SHT31;66602;48.922;2.414;2023-07-20T08:49:30;34.49;31.43
77100;SHT31;66602;48.922;2.414;2023-07-20T08:51:57;34.98;31.24
77100;SHT31;66602;48.922;2.414;2023-07-20T08:54:23;32.88;33.32
77100;SHT31;66602;48.922;2.414;2023-07-20T08:56:49;30.95;35.06
77100;SHT31;66602;48.922;2.414;2023-07-20T08:59:17;30.86;35.00
77100;SHT31;66602;48.922;2.414;2023-07-20T09:01:43;31.57;35.73
77100;SHT31;66602;48.922;2.414;2023-07-20T09:04:10;32.06;33.76
77100;SHT31;66602;48.922;2.414;2023-07-20T09:06:36;33.74;30.65
77100;SHT31;66602;48.922;2.414;2023-07-20T09:09:02;34.79;31.28
77100;SHT31;66602;48.922;2.414;2023-07-20T09:11:27;34.78;29.16
77100;SHT31;66602;48.922;2.414;2023-07-20T09:14:04;34.86;27.91
77100;SHT31;66602;48.922;2.414;2023-07-20T09:16:29;34.98;28.31
77100;SHT31;66602;48.922;2.414;2023-07-20T09:18:58;35.22;28.38
77100;SHT31;66602;48.922;2.414;2023-07-20T09:21:28;35.20;28.78
77100;SHT31;66602;48.922;2.414;2023-07-20T09:23:56;35.42;28.44
77100;SHT31;66602;48.922;2.414;2023-07-20T09:26:22;35.71;27.30
77100;SHT31;66602;48.922;2.414;2023-07-20T09:28:50;35.61;27.72
77100;SHT31;66602;48.922;2.414;2023-07-20T09:31:18;34.96;27.68
77100;SHT31;66602;48.922;2.414;2023-07-20T09:33:45;34.56;29.27
77100;SHT31;66602;48.922;2.414;2023-07-20T09:36:11;35.57;26.27
77100;SHT31;66602;48.922;2.414;2023-07-20T09:38:37;36.05;25.84
77100;SHT31;66602;48.922;2.414;2023-07-20T09:41:05;34.99;25.98
77100;SHT31;66602;48.922;2.414;2023-07-20T09:43:33;33.60;28.59
77100;SHT31;66602;48.922;2.414;2023-07-20T09:45:59;32.72;29.27
77100;SHT31;66602;48.922;2.414;2023-07-20T09:48:25;33.14;28.90
77100;SHT31;66602;48.922;2.414;2023-07-20T09:50:52;33.87;28.26
77100;SHT31;66602;48.922;2.414;2023-07-20T09:53:19;34.88;25.18
77100;SHT31;66602;48.922;2.414;2023-07-20T09:55:45;35.23;26.83
77100;SHT31;66602;48.922;2.414;2023-07-20T09:58:12;35.50;25.51
77100;SHT31;66602;48.922;2.414;2023-07-20T10:00:38;35.43;26.75
77100;SHT31;66602;48.922;2.414;2023-07-20T10:03:05;36.17;25.77
77100;SHT31;66602;48.922;2.414;2023-07-20T10:05:35;36.39;23.22
77100;SHT31;66602;48.922;2.414;2023-07-20T10:08:03;33.18;27.24
77100;SHT31;66602;48.922;2.414;2023-07-20T10:10:31;33.80;26.46
77100;SHT31;66602;48.922;2.414;2023-07-20T10:12:58;35.43;24.83
77100;SHT31;66602;48.922;2.414;2023-07-20T10:15:47;36.29;23.13
77100;SHT31;66602;48.922;2.414;2023-07-20T10:20:55;35.07;25.10
77100;SHT31;66602;48.922;2.414;2023-07-20T10:23:22;30.97;31.92
77100;SHT31;66602;48.922;2.414;2023-07-20T10:25:49;32.72;28.35
77100;SHT31;66602;48.922;2.414;2023-07-20T10:28:16;34.17;28.50
77100;SHT31;66602;48.922;2.414;2023-07-20T10:30:42;34.24;27.17
77100;SHT31;66602;48.922;2.414;2023-07-20T10:33:08;34.03;27.11
77100;SHT31;66602;48.922;2.414;2023-07-20T10:35:53;32.77;28.18
77100;SHT31;66602;48.922;2.414;2023-07-20T10:38:19;31.55;29.89
77100;SHT31;66602;48.922;2.414;2023-07-20T10:40:54;31.58;30.66
77100;SHT31;66602;48.922;2.414;2023-07-20T10:43:20;33.05;30.01
77100;SHT31;66602;48.922;2.414;2023-07-20T10:45:53;34.37;27.71
77100;SHT31;66602;48.922;2.414;2023-07-20T10:48:20;34.76;28.15
77100;SHT31;66602;48.922;2.414;2023-07-20T10:53:34;34.03;25.96
77100;SHT31;66602;48.922;2.414;2023-07-20T10:56:27;33.90;26.49
77100;SHT31;66602;48.922;2.414;2023-07-20T10:58:57;34.05;26.34
77100;SHT31;66602;48.922;2.414;2023-07-20T11:01:31;33.56;26.53
77100;SHT31;66602;48.922;2.414;2023-07-20T11:03:59;33.69;27.19
77100;SHT31;66602;48.922;2.414;2023-07-20T11:09:10;29.64;32.08
77100;SHT31;66602;48.922;2.414;2023-07-20T11:11:47;27.56;34.13
77100;SHT31;66602;48.922;2.414;2023-07-20T11:14:23;26.74;35.51
77100;SHT31;66602;48.922;2.414;2023-07-20T11:16:51;26.12;36.86
77100;SHT31;66602;48.922;2.414;2023-07-20T11:19:24;26.15;37.66
77100;SHT31;66602;48.922;2.414;2023-07-20T11:21:54;28.54;33.47
77100;SHT31;66602;48.922;2.414;2023-07-20T11:24:20;29.07;33.29
77100;SHT31;66602;48.922;2.414;2023-07-20T11:29:13;29.75;33.48
77100;SHT31;66602;48.922;2.414;2023-07-20T11:31:40;29.68;32.07
77100;SHT31;66602;48.922;2.414;2023-07-20T11:34:09;30.53;31.70
77100;SHT31;66602;48.922;2.414;2023-07-20T11:36:36;31.06;34.18
77100;SHT31;66602;48.922;2.414;2023-07-20T11:39:01;31.48;32.06
77100;SHT31;66602;48.922;2.414;2023-07-20T11:41:30;30.95;32.09
77100;SHT31;66602;48.922;2.414;2023-07-20T11:43:56;31.12;31.86
77100;SHT31;66602;48.922;2.414;2023-07-20T11:46:22;31.96;31.38
77100;SHT31;66602;48.922;2.414;2023-07-20T11:48:48;32.23;28.90
77100;SHT31;66602;48.922;2.414;2023-07-20T11:51:17;32.89;28.87
77100;SHT31;66602;48.922;2.414;2023-07-20T11:53:45;30.84;29.50
77100;SHT31;66602;48.922;2.414;2023-07-20T11:56:12;31.32;31.82
77100;SHT31;66602;48.922;2.414;2023-07-20T11:58:43;31.76;30.48
77100;SHT31;66602;48.922;2.414;2023-07-20T12:01:09;31.12;29.92
77100;SHT31;66602;48.922;2.414;2023-07-20T12:03:36;30.95;30.06
77100;SHT31;66602;48.922;2.414;2023-07-20T12:06:12;31.42;31.47
77100;SHT31;66602;48.922;2.414;2023-07-20T12:08:42;30.80;30.86
77100;SHT31;66602;48.922;2.414;2023-07-20T12:11:08;30.98;33.78
77100;SHT31;66602;48.922;2.414;2023-07-20T12:13:46;31.25;30.12
77100;SHT31;66602;48.922;2.414;2023-07-20T12:16:15;31.43;27.41
77100;SHT31;66602;48.922;2.414;2023-07-20T12:18:45;31.11;30.84
77100;SHT31;66602;48.922;2.414;2023-07-20T12:21:11;31.49;27.06
77100;SHT31;66602;48.922;2.414;2023-07-20T12:23:40;32.65;28.11
77100;SHT31;66602;48.922;2.414;2023-07-20T12:26:10;33.33;24.84
77100;SHT31;66602;48.922;2.414;2023-07-20T12:28:38;33.46;25.84
77100;SHT31;66602;48.922;2.414;2023-07-20T12:31:05;32.72;26.50
77100;SHT31;66602;48.922;2.414;2023-07-20T12:33:31;32.61;26.49
77100;SHT31;66602;48.922;2.414;2023-07-20T12:35:57;31.46;28.06
77100;SHT31;66602;48.922;2.414;2023-07-20T12:38:24;30.84;29.63
77100;SHT31;66602;48.922;2.414;2023-07-20T12:40:51;30.88;29.42
77100;SHT31;66602;48.922;2.414;2023-07-20T12:43:16;30.33;30.08
77100;SHT31;66602;48.922;2.414;2023-07-20T12:45:42;31.07;27.84
77100;SHT31;66602;48.922;2.414;2023-07-20T12:48:08;31.65;29.72
77100;SHT31;66602;48.922;2.414;2023-07-20T12:50:34;30.52;28.56
77100;SHT31;66602;48.922;2.414;2023-07-20T12:52:59;29.37;30.00
77100;SHT31;66602;48.922;2.414;2023-07-20T12:55:24;30.88;28.37
77100;SHT31;66602;48.922;2.414;2023-07-20T12:57:50;30.50;28.23
77100;SHT31;66602;48.922;2.414;2023-07-20T13:00:16;29.54;28.63
77100;SHT31;66602;48.922;2.414;2023-07-20T13:02:42;30.32;28.02
77100;SHT31;66602;48.922;2.414;2023-07-20T13:05:08;31.79;26.38
77100;SHT31;66602;48.922;2.414;2023-07-20T13:07:36;32.68;24.72
77100;SHT31;66602;48.922;2.414;2023-07-20T13:10:03;32.95;24.43
77100;SHT31;66602;48.922;2.414;2023-07-20T13:12:30;32.92;24.77
77100;SHT31;66602;48.922;2.414;2023-07-20T13:14:56;32.12;25.14
77100;SHT31;66602;48.922;2.414;2023-07-20T13:17:24;31.89;24.88
77100;SHT31;66602;48.922;2.414;2023-07-20T13:19:50;31.92;25.29
77100;SHT31;66602;48.922;2.414;2023-07-20T13:22:16;32.23;25.82
77100;SHT31;66602;48.922;2.414;2023-07-20T13:24:43;32.20;26.43
77100;SHT31;66602;48.922;2.414;2023-07-20T13:27:09;31.69;25.68
77100;SHT31;66602;48.922;2.414;2023-07-20T13:29:34;31.65;29.66
77100;SHT31;66602;48.922;2.414;2023-07-20T13:32:00;31.86;27.33
77100;SHT31;66602;48.922;2.414;2023-07-20T13:34:26;31.46;26.91
77100;SHT31;66602;48.922;2.414;2023-07-20T13:36:52;30.55;29.06
77100;SHT31;66602;48.922;2.414;2023-07-20T13:39:17;29.82;29.52
77100;SHT31;66602;48.922;2.414;2023-07-20T13:41:44;29.31;31.61
77100;SHT31;66602;48.922;2.414;2023-07-20T13:44:10;28.75;30.57
77100;SHT31;66602;48.922;2.414;2023-07-20T13:46:35;28.37;30.82
77100;SHT31;66602;48.922;2.414;2023-07-20T13:49:01;29.09;29.93
77100;SHT31;66602;48.922;2.414;2023-07-20T13:51:26;30.00;30.69
77100;SHT31;66602;48.922;2.414;2023-07-20T13:53:52;31.18;27.77
77100;SHT31;66602;48.922;2.414;2023-07-20T13:56:17;31.90;28.10
77100;SHT31;66602;48.922;2.414;2023-07-20T13:58:43;32.34;27.73
77100;SHT31;66602;48.922;2.414;2023-07-20T14:01:08;31.08;30.38
77100;SHT31;66602;48.922;2.414;2023-07-20T14:03:34;30.01;29.21
77100;SHT31;66602;48.922;2.414;2023-07-20T14:05:59;28.83;31.51
77100;SHT31;66602;48.922;2.414;2023-07-20T14:08:25;29.05;31.48
77100;SHT31;66602;48.922;2.414;2023-07-20T14:10:50;28.45;31.65
77100;SHT31;66602;48.922;2.414;2023-07-20T14:13:16;27.98;31.95
77100;SHT31;66602;48.922;2.414;2023-07-20T14:15:41;27.84;34.81
77100;SHT31;66602;48.922;2.414;2023-07-20T14:18:07;27.74;33.23
77100;SHT31;66602;48.922;2.414;2023-07-20T14:20:39;27.50;32.55
77100;SHT31;66602;48.922;2.414;2023-07-20T14:23:05;27.43;34.13
77100;SHT31;66602;48.922;2.414;2023-07-20T14:25:30;27.52;34.80
77100;SHT31;66602;48.922;2.414;2023-07-20T14:27:57;27.71;33.94
77100;SHT31;66602;48.922;2.414;2023-07-20T14:30:23;27.76;32.38
77100;SHT31;66602;48.922;2.414;2023-07-20T14:32:48;27.90;33.15
77100;SHT31;66602;48.922;2.414;2023-07-20T14:35:14;28.43;33.12
77100;SHT31;66602;48.922;2.414;2023-07-20T14:37:40;28.83;31.79
77100;SHT31;66602;48.922;2.414;2023-07-20T14:40:06;29.07;33.32
77100;SHT31;66602;48.922;2.414;2023-07-20T14:42:32;29.24;30.12
77100;SHT31;66602;48.922;2.414;2023-07-20T14:44:58;29.38;29.91
77100;SHT31;66602;48.922;2.414;2023-07-20T14:47:23;29.44;29.97
77100;SHT31;66602;48.922;2.414;2023-07-20T14:49:49;29.55;29.58
77100;SHT31;66602;48.922;2.414;2023-07-20T14:52:14;29.05;30.18
77100;SHT31;66602;48.922;2.414;2023-07-20T14:54:40;28.49;30.41
77100;SHT31;66602;48.922;2.414;2023-07-20T14:57:06;28.62;30.50
77100;SHT31;66602;48.922;2.414;2023-07-20T14:59:38;28.78;31.66
77100;SHT31;66602;48.922;2.414;2023-07-20T15:02:04;28.15;31.81
77100;SHT31;66602;48.922;2.414;2023-07-20T15:04:30;27.49;32.67
77100;SHT31;66602;48.922;2.414;2023-07-20T15:06:55;27.14;33.87
77100;SHT31;66602;48.922;2.414;2023-07-20T15:09:21;26.81;33.11
77100;SHT31;66602;48.922;2.414;2023-07-20T15:11:47;26.61;34.54
77100;SHT31;66602;48.922;2.414;2023-07-20T15:14:13;26.80;35.27
77100;SHT31;66602;48.922;2.414;2023-07-20T15:16:39;27.21;36.15
77100;SHT31;66602;48.922;2.414;2023-07-20T15:19:08;27.52;32.97
77100;SHT31;66602;48.922;2.414;2023-07-20T15:21:34;27.57;32.81
77100;SHT31;66602;48.922;2.414;2023-07-20T15:23:59;27.60;32.65
77100;SHT31;66602;48.922;2.414;2023-07-20T15:26:25;27.57;32.75
77100;SHT31;66602;48.922;2.414;2023-07-20T15:28:50;27.62;34.07
77100;SHT31;66602;48.922;2.414;2023-07-20T15:31:16;27.82;32.69
77100;SHT31;66602;48.922;2.414;2023-07-20T15:33:44;27.83;31.44
77100;SHT31;66602;48.922;2.414;2023-07-20T15:36:10;27.69;31.73
77100;SHT31;66602;48.922;2.414;2023-07-20T15:38:35;27.47;32.67
77100;SHT31;66602;48.922;2.414;2023-07-20T15:41:01;27.24;32.74
77100;SHT31;66602;48.922;2.414;2023-07-20T15:43:27;27.18;33.09
77100;SHT31;66602;48.922;2.414;2023-07-20T15:46:02;27.16;34.03
77100;SHT31;66602;48.922;2.414;2023-07-20T15:48:27;27.08;33.08